Time;durP1;ratioP1;P1;durP2;ratioP2;P2;SDS_P1;SDS_P2;PMS_P1;PMS_P2;Temp;Humidity;BMP_temperature;BMP_pressure;BME280_temperature;BME280_humidity;BME280_pressure;Samples;Min_cycle;Max_cycle;Signal;HPM_P1;HPM_P2
2023/01/19 00:02:57;;;;;;;;;;;16.50;45.70;;;;;;10249070;28;891;-75
2023/01/19 00:07:52;;;;;;;;;;;16.50;45.70;;;;;;10249432;28;1303;-75
2023/01/19 00:12:48;;;;;;;;;;;16.50;45.60;;;;;;10248654;28;984;-75
2023/01/19 00:17:43;;;;;;;;;;;16.40;45.60;;;;;;10248483;28;1979;-75
2023/01/19 00:22:38;;;;;;;;;;;16.50;45.60;;;;;;10248368;28;890;-74
2023/01/19 00:27:34;;;;;;;;;;;16.50;45.20;;;;;;10248143;28;826;-74
2023/01/19 00:32:29;;;;;;;;;;;16.40;45.50;;;;;;10248164;28;917;-75
2023/01/19 00:37:24;;;;;;;;;;;16.40;45.60;;;;;;10247696;28;1902;-75
2023/01/19 00:47:34;;;;;;;;;;;16.40;45.60;;;;;;10247555;28;667;-75
2023/01/19 00:52:29;;;;;;;;;;;16.40;45.50;;;;;;10246705;28;944;-75
2023/01/19 00:57:25;;;;;;;;;;;16.40;45.40;;;;;;10246039;28;1902;-74
2023/01/19 01:02:21;;;;;;;;;;;16.40;45.50;;;;;;10247466;28;845;-74
2023/01/19 01:07:16;;;;;;;;;;;16.40;45.20;;;;;;10246854;28;1157;-75
2023/01/19 01:12:11;;;;;;;;;;;16.40;45.50;;;;;;10245914;28;988;-75
2023/01/19 01:17:10;;;;;;;;;;;16.40;45.50;;;;;;10246563;28;1914;-74
2023/01/19 01:22:05;;;;;;;;;;;16.40;45.50;;;;;;10246390;28;798;-75
2023/01/19 01:27:00;;;;;;;;;;;16.40;45.60;;;;;;10245916;28;928;-75
2023/01/19 01:31:56;;;;;;;;;;;16.40;45.40;;;;;;10246235;28;923;-74
2023/01/19 01:36:51;;;;;;;;;;;16.40;45.30;;;;;;10245936;28;1965;-74
2023/01/19 01:41:47;;;;;;;;;;;16.40;45.30;;;;;;10245471;28;932;-74
2023/01/19 01:46:42;;;;;;;;;;;16.40;45.60;;;;;;10245089;28;875;-74
2023/01/19 01:51:37;;;;;;;;;;;16.40;45.60;;;;;;10245613;28;845;-74
2023/01/19 01:56:33;;;;;;;;;;;16.40;45.30;;;;;;10245583;28;1954;-74
2023/01/19 02:17:10;;;;;;;;;;;16.40;45.40;;;;;;10243709;28;1918;-74
2023/01/19 02:22:06;;;;;;;;;;;16.30;45.70;;;;;;10244209;28;1000;-75
2023/01/19 02:27:01;;;;;;;;;;;16.40;45.20;;;;;;10244073;28;862;-75
2023/01/19 02:31:58;;;;;;;;;;;16.40;45.40;;;;;;10244584;28;932;-73
2023/01/19 02:36:54;;;;;;;;;;;16.40;45.30;;;;;;10244386;28;1906;-74
2023/01/19 02:41:49;;;;;;;;;;;16.40;45.00;;;;;;10244766;28;825;-75
2023/01/19 02:46:44;;;;;;;;;;;16.30;45.10;;;;;;10244381;28;869;-75
2023/01/19 02:51:40;;;;;;;;;;;16.30;45.50;;;;;;10244351;28;964;-74
2023/01/19 02:56:35;;;;;;;;;;;16.30;45.60;;;;;;10243516;28;1914;-75
2023/01/19 03:01:30;;;;;;;;;;;16.30;45.20;;;;;;10243451;28;843;-74
2023/01/19 03:06:26;;;;;;;;;;;16.30;45.40;;;;;;10243230;28;1296;-74
2023/01/19 03:11:21;;;;;;;;;;;16.30;45.60;;;;;;10243265;28;1071;-75
2023/01/19 03:16:16;;;;;;;;;;;16.30;45.60;;;;;;10243622;28;1910;-75
2023/01/19 03:21:12;;;;;;;;;;;16.30;45.30;;;;;;10246586;28;770;-75
2023/01/19 03:26:08;;;;;;;;;;;16.30;45.00;;;;;;10251431;28;881;-75
2023/01/19 03:31:03;;;;;;;;;;;16.30;45.30;;;;;;10250989;28;837;-74
2023/01/19 03:36:02;;;;;;;;;;;16.30;45.30;;;;;;10250744;28;1965;-75
2023/01/19 03:40:57;;;;;;;;;;;16.30;45.20;;;;;;10249903;28;969;-75
2023/01/19 03:45:53;;;;;;;;;;;16.30;45.40;;;;;;10250148;28;888;-74
2023/01/19 03:50:48;;;;;;;;;;;16.30;45.20;;;;;;10249596;28;775;-74
2023/01/19 03:55:43;;;;;;;;;;;16.30;45.50;;;;;;10249940;28;1959;-74
2023/01/19 04:00:39;;;;;;;;;;;16.30;45.20;;;;;;10250414;28;996;-75
2023/01/19 04:05:36;;;;;;;;;;;16.30;45.10;;;;;;10248851;28;1135;-74
2023/01/19 04:10:31;;;;;;;;;;;16.30;45.20;;;;;;10248905;28;1108;-74
2023/01/19 04:15:27;;;;;;;;;;;16.30;45.00;;;;;;10248621;28;1918;-75
2023/01/19 04:20:23;;;;;;;;;;;16.30;45.00;;;;;;10248523;28;889;-75
2023/01/19 04:25:18;;;;;;;;;;;16.30;45.00;;;;;;10248283;28;870;-75
2023/01/19 04:30:14;;;;;;;;;;;16.30;44.80;;;;;;10248623;28;790;-75
2023/01/19 04:35:09;;;;;;;;;;;16.20;45.00;;;;;;10248215;28;893;-75
2023/01/19 04:40:05;;;;;;;;;;;16.30;44.20;;;;;;10248288;28;1902;-74
2023/01/19 04:45:00;;;;;;;;;;;16.30;44.20;;;;;;10247540;28;852;-75
2023/01/19 04:49:55;;;;;;;;;;;16.30;44.20;;;;;;10247357;28;810;-74
2023/01/19 04:54:51;;;;;;;;;;;16.20;44.60;;;;;;10247785;28;838;-74
2023/01/19 04:59:47;;;;;;;;;;;16.20;44.50;;;;;;10247489;28;1898;-74
2023/01/19 05:04:42;;;;;;;;;;;16.20;44.10;;;;;;10247365;28;794;-74
2023/01/19 05:09:37;;;;;;;;;;;16.30;44.40;;;;;;10247353;28;1317;-74
2023/01/19 05:14:33;;;;;;;;;;;16.30;44.70;;;;;;10246991;28;966;-74
2023/01/19 05:19:28;;;;;;;;;;;16.30;44.40;;;;;;10246723;28;1975;-74
2023/01/19 05:24:24;;;;;;;;;;;16.30;44.10;;;;;;10246013;28;1173;-74
2023/01/19 05:29:19;;;;;;;;;;;16.30;44.50;;;;;;10246824;28;794;-74
2023/01/19 05:34:14;;;;;;;;;;;16.30;44.30;;;;;;10245660;28;885;-75
2023/01/19 05:39:10;;;;;;;;;;;16.30;44.50;;;;;;10245383;28;1914;-75
2023/01/19 05:44:05;;;;;;;;;;;16.30;44.30;;;;;;10245283;28;858;-75
2023/01/19 05:49:03;;;;;;;;;;;16.30;45.10;;;;;;10245130;28;1082;-74
2023/01/19 05:53:59;;;;;;;;;;;16.30;44.60;;;;;;10245326;28;774;-74
2023/01/19 05:58:55;;;;;;;;;;;16.30;44.50;;;;;;10244732;28;1910;-74
2023/01/19 06:03:50;;;;;;;;;;;16.30;44.50;;;;;;10244670;28;782;-74
2023/01/19 06:08:46;;;;;;;;;;;16.30;44.30;;;;;;10245060;28;1506;-74
2023/01/19 06:13:41;;;;;;;;;;;16.30;44.50;;;;;;10244392;28;871;-75
2023/01/19 06:18:37;;;;;;;;;;;16.30;44.90;;;;;;10245161;28;1922;-75
2023/01/19 06:23:32;;;;;;;;;;;16.30;44.40;;;;;;10244158;28;786;-75
2023/01/19 06:28:27;;;;;;;;;;;16.30;44.40;;;;;;10244132;28;861;-74
2023/01/19 06:33:23;;;;;;;;;;;16.30;44.40;;;;;;10244663;28;869;-75
2023/01/19 06:38:18;;;;;;;;;;;16.30;44.50;;;;;;10244238;28;1910;-74
2023/01/19 06:43:14;;;;;;;;;;;16.30;44.40;;;;;;10244367;28;869;-75
2023/01/19 06:48:09;;;;;;;;;;;16.30;44.30;;;;;;10243761;28;846;-75
2023/01/19 06:53:04;;;;;;;;;;;16.40;44.40;;;;;;10244221;28;845;-75
2023/01/19 06:58:00;;;;;;;;;;;16.30;44.40;;;;;;10251358;28;1915;-74
2023/01/19 07:02:55;;;;;;;;;;;16.30;44.30;;;;;;10251445;28;883;-74
2023/01/19 07:07:50;;;;;;;;;;;16.30;44.50;;;;;;10251648;28;1298;-75
2023/01/19 07:12:46;;;;;;;;;;;16.30;44.20;;;;;;10251131;28;797;-75
2023/01/19 07:17:41;;;;;;;;;;;16.30;44.40;;;;;;10250811;28;1975;-75
2023/01/19 07:22:37;;;;;;;;;;;16.30;44.60;;;;;;10250989;28;844;-72
2023/01/19 07:27:32;;;;;;;;;;;16.20;44.50;;;;;;10249954;28;983;-76
2023/01/19 07:32:27;;;;;;;;;;;16.20;44.50;;;;;;10250467;28;818;-77
2023/01/19 07:37:23;;;;;;;;;;;16.20;44.70;;;;;;10250009;28;1906;-78
2023/01/19 07:42:18;;;;;;;;;;;16.30;44.40;;;;;;10249265;28;795;-78
2023/01/19 07:47:14;;;;;;;;;;;16.30;44.20;;;;;;10249745;28;826;-73
2023/01/19 07:52:09;;;;;;;;;;;16.40;44.10;;;;;;10250182;28;794;-73
2023/01/19 07:57:04;;;;;;;;;;;16.60;44.30;;;;;;10249232;28;1977;-71
2023/01/19 08:02:00;;;;;;;;;;;16.80;44.70;;;;;;10249454;28;984;-72
2023/01/19 08:06:55;;;;;;;;;;;16.90;45.50;;;;;;10247252;28;1334;-76
2023/01/19 08:11:50;;;;;;;;;;;16.90;45.40;;;;;;10248858;28;810;-76
2023/01/19 08:16:46;;;;;;;;;;;17.00;45.90;;;;;;10248635;28;1914;-76
2023/01/19 08:21:41;;;;;;;;;;;16.90;46.10;;;;;;10248565;28;850;-76
2023/01/19 08:26:37;;;;;;;;;;;16.90;46.20;;;;;;10248393;28;763;-75
2023/01/19 08:31:33;;;;;;;;;;;17.00;46.20;;;;;;10248727;28;891;-76
2023/01/19 08:36:28;;;;;;;;;;;17.00;46.50;;;;;;10248580;28;1959;-75
2023/01/19 08:41:24;;;;;;;;;;;17.00;46.50;;;;;;10247781;28;916;-75
2023/01/19 08:46:20;;;;;;;;;;;17.00;46.60;;;;;;10247594;28;822;-74
2023/01/19 08:51:16;;;;;;;;;;;17.10;46.60;;;;;;10247375;28;834;-75
2023/01/19 08:56:12;;;;;;;;;;;17.00;46.70;;;;;;10246542;28;1898;-74
2023/01/19 09:01:07;;;;;;;;;;;17.00;46.60;;;;;;10247009;28;846;-75
2023/01/19 09:06:03;;;;;;;;;;;17.00;46.90;;;;;;10246994;28;1221;-75
2023/01/19 09:10:58;;;;;;;;;;;17.00;46.90;;;;;;10247301;28;876;-75
2023/01/19 09:15:54;;;;;;;;;;;17.10;47.10;;;;;;10245026;28;1906;-75
2023/01/19 09:20:49;;;;;;;;;;;17.10;46.70;;;;;;10245820;28;920;-75
2023/01/19 09:25:44;;;;;;;;;;;17.10;46.40;;;;;;10245987;28;809;-75
2023/01/19 09:30:40;;;;;;;;;;;17.10;46.40;;;;;;10246280;28;862;-79
2023/01/19 09:35:35;;;;;;;;;;;17.10;46.70;;;;;;10245603;28;1360;-85
2023/01/19 09:40:31;;;;;;;;;;;16.80;46.90;;;;;;10268720;28;1894;-84
2023/01/19 09:45:26;;;;;;;;;;;16.60;47.20;;;;;;10285739;28;890;-84
2023/01/19 09:50:21;;;;;;;;;;;16.60;47.20;;;;;;10286219;28;877;-85
2023/01/19 09:55:17;;;;;;;;;;;16.50;47.20;;;;;;10285487;28;878;-84
2023/01/19 10:00:12;;;;;;;;;;;16.50;47.20;;;;;;10285267;28;1965;-84
2023/01/19 10:05:08;;;;;;;;;;;16.50;47.70;;;;;;10285096;28;890;-84
2023/01/19 10:10:03;;;;;;;;;;;16.50;47.10;;;;;;10284861;28;1161;-84
2023/01/19 10:15:00;;;;;;;;;;;16.50;47.10;;;;;;10283702;28;2128;-84
2023/01/19 10:19:55;;;;;;;;;;;16.40;47.00;;;;;;10284181;28;1987;-79
2023/01/19 10:24:51;;;;;;;;;;;16.50;46.90;;;;;;10284760;28;766;-73
2023/01/19 10:29:46;;;;;;;;;;;16.50;46.80;;;;;;10284113;28;802;-75
2023/01/19 10:34:42;;;;;;;;;;;16.90;47.70;;;;;;10284515;28;766;-75
2023/01/19 10:39:37;;;;;;;;;;;17.00;47.30;;;;;;10284903;28;1895;-74
2023/01/19 10:44:32;;;;;;;;;;;17.10;47.60;;;;;;10284175;28;1181;-74
2023/01/19 10:49:28;;;;;;;;;;;17.10;47.30;;;;;;10284162;28;842;-74
2023/01/19 10:54:23;;;;;;;;;;;17.10;47.20;;;;;;10284480;28;827;-76
2023/01/19 10:59:18;;;;;;;;;;;17.20;47.10;;;;;;10282902;28;1959;-74
2023/01/19 11:04:14;;;;;;;;;;;17.00;47.30;;;;;;10282557;28;981;-75
2023/01/19 11:09:09;;;;;;;;;;;16.80;47.60;;;;;;10283806;28;1271;-74
2023/01/19 11:14:05;;;;;;;;;;;16.60;47.70;;;;;;10283770;28;1026;-75
2023/01/19 11:19:02;;;;;;;;;;;16.60;47.60;;;;;;10283551;28;1962;-74
2023/01/19 11:23:57;;;;;;;;;;;16.60;47.50;;;;;;10284379;28;863;-79
2023/01/19 11:28:53;;;;;;;;;;;16.50;47.50;;;;;;10283463;28;846;-77
2023/01/19 11:33:48;;;;;;;;;;;16.50;47.50;;;;;;10283446;28;935;-74
2023/01/19 11:38:44;;;;;;;;;;;16.60;47.50;;;;;;10283230;28;1961;-75
2023/01/19 11:43:39;;;;;;;;;;;16.90;47.30;;;;;;10289322;28;844;-74
2023/01/19 11:48:35;;;;;;;;;;;16.90;47.50;;;;;;10290313;28;765;-73
2023/01/19 11:53:32;;;;;;;;;;;17.10;47.40;;;;;;10290436;28;851;-73
2023/01/19 11:58:27;;;;;;;;;;;17.10;47.50;;;;;;10289727;28;1988;-73
2023/01/19 12:03:22;;;;;;;;;;;17.20;47.60;;;;;;10288869;28;906;-74
2023/01/19 12:08:18;;;;;;;;;;;17.10;47.40;;;;;;10288148;28;1331;-73
2023/01/19 12:13:13;;;;;;;;;;;17.10;47.50;;;;;;10288665;28;1228;-74
2023/01/19 12:18:08;;;;;;;;;;;16.90;47.90;;;;;;10289447;28;1906;-73
2023/01/19 12:23:04;;;;;;;;;;;16.70;48.20;;;;;;10289822;28;758;-79
2023/01/19 12:27:59;;;;;;;;;;;16.60;48.10;;;;;;10289443;28;782;-77
2023/01/19 12:32:54;;;;;;;;;;;16.60;48.00;;;;;;10289249;28;856;-79
2023/01/19 12:37:50;;;;;;;;;;;16.60;47.80;;;;;;10288424;28;1949;-79
2023/01/19 12:42:45;;;;;;;;;;;16.60;47.80;;;;;;10289048;28;859;-84
2023/01/19 12:47:41;;;;;;;;;;;16.60;47.60;;;;;;10288747;28;750;-84
2023/01/19 12:52:38;;;;;;;;;;;16.50;47.60;;;;;;10286684;28;927;-84
2023/01/19 12:57:33;;;;;;;;;;;16.50;47.50;;;;;;10287536;28;1906;-81
2023/01/19 13:02:28;;;;;;;;;;;16.50;47.40;;;;;;10287547;28;747;-81
2023/01/19 13:07:24;;;;;;;;;;;16.50;47.50;;;;;;10287488;28;1092;-81
2023/01/19 13:12:20;;;;;;;;;;;16.50;47.50;;;;;;10287518;28;905;-77
2023/01/19 13:17:15;;;;;;;;;;;16.80;48.00;;;;;;10286706;28;1965;-76
2023/01/19 13:22:10;;;;;;;;;;;17.00;48.10;;;;;;10286693;28;749;-75
2023/01/19 13:27:06;;;;;;;;;;;17.20;48.40;;;;;;10286996;28;821;-72
2023/01/19 13:32:01;;;;;;;;;;;17.20;48.40;;;;;;10287610;28;928;-74
2023/01/19 13:37:00;;;;;;;;;;;17.20;48.80;;;;;;10286736;28;1902;-75
2023/01/19 13:41:56;;;;;;;;;;;17.30;49.10;;;;;;10285729;28;805;-74
2023/01/19 13:46:51;;;;;;;;;;;17.30;49.20;;;;;;10246795;28;1268;-74
2023/01/19 13:51:47;;;;;;;;;;;17.30;49.20;;;;;;10244947;28;754;-74
2023/01/19 13:56:44;;;;;;;;;;;17.30;48.90;;;;;;10245123;28;1902;-74
2023/01/19 14:01:39;;;;;;;;;;;17.30;48.90;;;;;;10244244;28;839;-79
2023/01/19 14:06:35;;;;;;;;;;;17.20;49.00;;;;;;10243667;28;1201;-76
2023/01/19 14:11:30;;;;;;;;;;;16.90;49.20;;;;;;10244290;28;868;-83
2023/01/19 14:16:25;;;;;;;;;;;16.80;49.20;;;;;;10244128;28;1898;-75
2023/01/19 14:21:21;;;;;;;;;;;16.70;49.10;;;;;;10243859;28;855;-76
2023/01/19 14:26:16;;;;;;;;;;;16.70;48.90;;;;;;10243717;28;805;-80
2023/01/19 14:31:12;;;;;;;;;;;16.70;48.60;;;;;;10244048;28;933;-80
2023/01/19 14:36:07;;;;;;;;;;;16.70;48.70;;;;;;10244788;28;1894;-80
2023/01/19 14:41:02;;;;;;;;;;;16.60;48.50;;;;;;10243018;28;906;-72
2023/01/19 14:45:58;;;;;;;;;;;16.60;48.30;;;;;;10243490;28;841;-72
2023/01/19 14:50:53;;;;;;;;;;;16.60;48.30;;;;;;10243366;28;863;-73
2023/01/19 14:55:48;;;;;;;;;;;16.60;48.30;;;;;;10242427;28;1898;-73
2023/01/19 15:00:44;;;;;;;;;;;16.60;48.10;;;;;;10243418;28;908;-75
2023/01/19 15:05:39;;;;;;;;;;;16.60;48.10;;;;;;10243016;28;1273;-75
2023/01/19 15:10:35;;;;;;;;;;;16.60;48.10;;;;;;10243561;28;861;-75
2023/01/19 15:15:30;;;;;;;;;;;16.50;48.60;;;;;;10244937;28;1243;-74
2023/01/19 15:20:25;;;;;;;;;;;16.50;48.00;;;;;;10251421;28;1906;-75
2023/01/19 15:25:21;;;;;;;;;;;16.40;48.10;;;;;;10251299;28;814;-75
2023/01/19 15:30:16;;;;;;;;;;;16.50;47.90;;;;;;10250495;28;777;-75
2023/01/19 15:35:12;;;;;;;;;;;16.40;48.00;;;;;;10250973;28;767;-74
2023/01/19 15:40:07;;;;;;;;;;;16.50;48.00;;;;;;10250912;28;1914;-75
2023/01/19 15:45:02;;;;;;;;;;;16.50;48.00;;;;;;10250704;28;842;-75
2023/01/19 15:49:58;;;;;;;;;;;16.40;47.80;;;;;;10249294;28;1026;-75
2023/01/19 15:54:53;;;;;;;;;;;16.40;47.70;;;;;;10249618;28;850;-75
2023/01/19 15:59:50;;;;;;;;;;;16.40;47.70;;;;;;10249252;28;1910;-74
2023/01/19 16:04:45;;;;;;;;;;;16.40;47.70;;;;;;10248937;28;1340;-73
2023/01/19 16:09:40;;;;;;;;;;;16.80;49.30;;;;;;10249182;28;1310;-72
2023/01/19 16:14:36;;;;;;;;;;;17.00;48.70;;;;;;10249500;28;1015;-72
2023/01/19 16:19:31;;;;;;;;;;;17.10;48.80;;;;;;10248704;28;1918;-72
2023/01/19 16:24:27;;;;;;;;;;;17.20;48.70;;;;;;10248560;28;923;-72
2023/01/19 16:29:22;;;;;;;;;;;17.20;48.90;;;;;;10248353;28;949;-72
2023/01/19 16:34:17;;;;;;;;;;;17.20;48.90;;;;;;10247987;28;854;-72
2023/01/19 16:39:13;;;;;;;;;;;17.20;48.80;;;;;;10248266;28;1980;-72
2023/01/19 16:44:08;;;;;;;;;;;17.30;48.70;;;;;;10248221;28;1248;-73
2023/01/19 16:49:03;;;;;;;;;;;17.30;48.60;;;;;;10248386;28;948;-72
2023/01/19 16:53:59;;;;;;;;;;;17.30;48.60;;;;;;10247997;28;812;-72
2023/01/19 16:58:54;;;;;;;;;;;17.30;48.60;;;;;;10248306;28;1910;-73
2023/01/19 17:03:50;;;;;;;;;;;17.30;48.50;;;;;;10247011;28;766;-72
2023/01/19 17:08:45;;;;;;;;;;;17.30;48.10;;;;;;10247295;28;1460;-72
2023/01/19 17:13:40;;;;;;;;;;;17.30;48.50;;;;;;10247043;28;920;-72
2023/01/19 17:18:36;;;;;;;;;;;17.30;48.40;;;;;;10246342;28;1914;-73
2023/01/19 17:23:32;;;;;;;;;;;17.40;48.50;;;;;;10247706;28;861;-72
2023/01/19 17:28:27;;;;;;;;;;;17.30;48.40;;;;;;10245999;28;867;-71
2023/01/19 17:33:23;;;;;;;;;;;17.40;48.50;;;;;;10245359;28;834;-72
2023/01/19 17:38:18;;;;;;;;;;;17.40;48.60;;;;;;10245028;28;1961;-72
2023/01/19 17:43:13;;;;;;;;;;;17.30;48.60;;;;;;10245563;28;897;-73
2023/01/19 17:48:09;;;;;;;;;;;17.40;48.50;;;;;;10245416;28;764;-73
2023/01/19 17:53:04;;;;;;;;;;;17.40;48.30;;;;;;10245514;28;861;-72
2023/01/19 17:57:59;;;;;;;;;;;17.40;48.50;;;;;;10245244;28;1907;-72
2023/01/19 18:02:55;;;;;;;;;;;17.30;48.20;;;;;;10244271;28;1015;-72
2023/01/19 18:07:50;;;;;;;;;;;17.30;48.20;;;;;;10245560;28;1452;-72
2023/01/19 18:12:46;;;;;;;;;;;17.40;47.80;;;;;;10244353;28;1173;-72
2023/01/19 18:17:41;;;;;;;;;;;17.40;47.50;;;;;;10243809;28;1989;-71
2023/01/19 18:22:37;;;;;;;;;;;17.30;47.60;;;;;;10244927;28;891;-73
2023/01/19 18:27:32;;;;;;;;;;;17.20;47.60;;;;;;10244124;28;871;-76
2023/01/19 18:32:27;;;;;;;;;;;17.00;48.30;;;;;;10244125;28;813;-78
2023/01/19 18:37:23;;;;;;;;;;;17.00;48.30;;;;;;10244043;28;1959;-77
2023/01/19 18:42:18;;;;;;;;;;;16.90;48.50;;;;;;10244900;28;904;-75
2023/01/19 18:47:14;;;;;;;;;;;16.90;48.60;;;;;;10244008;28;881;-75
2023/01/19 18:52:09;;;;;;;;;;;16.80;48.60;;;;;;10250376;28;880;-76
2023/01/19 18:57:04;;;;;;;;;;;16.80;48.60;;;;;;10251844;28;1910;-75
2023/01/19 19:02:00;;;;;;;;;;;16.80;48.50;;;;;;10251645;28;859;-75
2023/01/19 19:06:55;;;;;;;;;;;16.80;48.40;;;;;;10251784;28;1263;-75
2023/01/19 19:11:51;;;;;;;;;;;16.80;48.40;;;;;;10251369;28;924;-75
2023/01/19 19:16:46;;;;;;;;;;;16.80;48.40;;;;;;10251859;28;1981;-75
2023/01/19 19:21:42;;;;;;;;;;;16.80;48.40;;;;;;10250972;28;873;-76
2023/01/19 19:26:37;;;;;;;;;;;16.80;48.30;;;;;;10251340;28;825;-76
2023/01/19 19:31:32;;;;;;;;;;;16.80;48.40;;;;;;10250612;28;874;-81
2023/01/19 19:36:28;;;;;;;;;;;16.80;48.40;;;;;;10250468;28;1975;-77
2023/01/19 19:41:23;;;;;;;;;;;16.80;48.20;;;;;;10250112;28;945;-76
2023/01/19 19:46:19;;;;;;;;;;;16.80;48.20;;;;;;10250001;28;857;-79
2023/01/19 19:51:14;;;;;;;;;;;16.80;48.20;;;;;;10249914;28;806;-77
2023/01/19 19:56:09;;;;;;;;;;;16.80;48.00;;;;;;10250856;28;1906;-74
2023/01/19 20:01:05;;;;;;;;;;;16.80;48.10;;;;;;10248208;28;1116;-79
2023/01/19 20:06:00;;;;;;;;;;;16.80;48.10;;;;;;10248687;28;1134;-72
2023/01/19 20:10:55;;;;;;;;;;;16.80;48.00;;;;;;10249768;28;826;-71
2023/01/19 20:15:52;;;;;;;;;;;16.80;48.10;;;;;;10248946;28;933;-70
2023/01/19 20:20:47;;;;;;;;;;;16.80;48.10;;;;;;10248639;28;1895;-70
2023/01/19 20:25:43;;;;;;;;;;;16.80;48.00;;;;;;10248537;28;929;-71
2023/01/19 20:30:38;;;;;;;;;;;16.80;48.10;;;;;;10248989;28;911;-71
2023/01/19 20:35:33;;;;;;;;;;;16.80;48.00;;;;;;10248784;28;857;-71
2023/01/19 20:40:29;;;;;;;;;;;16.80;47.90;;;;;;10247983;28;1898;-71
2023/01/19 20:45:25;;;;;;;;;;;16.80;47.90;;;;;;10247818;28;850;-71
2023/01/19 20:50:20;;;;;;;;;;;16.70;48.00;;;;;;10248275;28;841;-79
2023/01/19 20:55:15;;;;;;;;;;;16.70;48.10;;;;;;10247360;28;861;-78
2023/01/19 21:00:11;;;;;;;;;;;16.70;48.20;;;;;;10246581;28;1898;-76
2023/01/19 21:05:06;;;;;;;;;;;16.70;48.20;;;;;;10247574;28;821;-76
2023/01/19 21:10:01;;;;;;;;;;;16.60;48.10;;;;;;10247889;28;1385;-79
2023/01/19 21:14:57;;;;;;;;;;;16.60;48.20;;;;;;10246221;28;922;-78
2023/01/19 21:19:52;;;;;;;;;;;16.60;48.20;;;;;;10245791;28;1910;-82
2023/01/19 21:24:48;;;;;;;;;;;16.50;48.20;;;;;;10246263;28;909;-77
2023/01/19 21:29:43;;;;;;;;;;;16.50;48.30;;;;;;10246911;28;851;-77
2023/01/19 21:34:38;;;;;;;;;;;16.50;48.30;;;;;;10245842;28;873;-77
2023/01/19 21:39:54;;;;;;;;;;;16.60;48.30;;;;;;10382669;27;1423;-77
2023/01/19 21:44:49;;;;;;;;;;;16.50;48.30;;;;;;10378065;28;1577;-77
2023/01/19 21:49:44;;;;;;;;;;;16.60;48.30;;;;;;10360355;28;881;-77
2023/01/19 21:54:40;;;;;;;;;;;16.60;48.20;;;;;;10361334;28;817;-77
2023/01/19 21:59:35;;;;;;;;;;;16.60;48.30;;;;;;10361212;28;1902;-77
2023/01/19 22:04:31;;;;;;;;;;;16.60;48.20;;;;;;10360297;28;881;-77
2023/01/19 22:09:26;;;;;;;;;;;16.60;48.20;;;;;;10360202;28;844;-78
2023/01/19 22:14:21;;;;;;;;;;;16.60;48.20;;;;;;10360604;28;878;-75
2023/01/19 22:19:17;;;;;;;;;;;16.50;48.20;;;;;;10360288;28;1968;-81
2023/01/19 22:24:12;;;;;;;;;;;16.50;48.20;;;;;;10359620;28;863;-80
2023/01/19 22:29:10;;;;;;;;;;;16.50;48.10;;;;;;10359774;28;943;-79
2023/01/19 22:34:09;;;;;;;;;;;16.60;48.20;;;;;;10359116;28;920;-79
2023/01/19 22:39:05;;;;;;;;;;;16.50;48.20;;;;;;10359866;28;1882;-80
2023/01/19 22:44:00;;;;;;;;;;;16.50;48.00;;;;;;10359442;28;837;-80
2023/01/19 22:48:55;;;;;;;;;;;16.50;48.00;;;;;;10343616;28;876;-79
2023/01/19 22:53:51;;;;;;;;;;;16.50;48.00;;;;;;10331024;28;826;-75
2023/01/19 22:58:46;;;;;;;;;;;16.50;48.10;;;;;;10364462;28;1942;-74
2023/01/19 23:03:41;;;;;;;;;;;16.50;48.00;;;;;;10367405;28;1096;-79
2023/01/19 23:08:37;;;;;;;;;;;16.50;48.10;;;;;;10329578;28;1054;-77
2023/01/19 23:13:32;;;;;;;;;;;16.50;48.10;;;;;;10330127;28;758;-78
2023/01/19 23:18:28;;;;;;;;;;;16.50;48.00;;;;;;10329301;28;1901;-78
2023/01/19 23:23:23;;;;;;;;;;;16.50;48.00;;;;;;10329678;28;839;-78
2023/01/19 23:28:18;;;;;;;;;;;16.40;48.00;;;;;;10329981;28;884;-80
2023/01/19 23:33:14;;;;;;;;;;;16.40;48.00;;;;;;10329221;28;900;-77
2023/01/19 23:38:09;;;;;;;;;;;16.40;48.10;;;;;;10328918;28;1997;-78
2023/01/19 23:43:04;;;;;;;;;;;16.40;48.00;;;;;;10329701;28;878;-79
2023/01/19 23:48:00;;;;;;;;;;;16.40;48.00;;;;;;10330133;28;817;-79
2023/01/19 23:52:55;;;;;;;;;;;16.40;48.10;;;;;;10328950;28;908;-79
2023/01/19 23:57:50;;;;;;;;;;;16.40;47.90;;;;;;10329267;28;1909;-79
